createdAt,value
2019-06-20T00:00:54.396Z,97876.14
2019-06-20T00:02:58.157Z,97877.44
2019-06-20T00:05:02.045Z,97880.02
2019-06-20T00:07:05.940Z,97876.52
2019-06-20T00:09:09.900Z,97875.56
2019-06-20T00:11:14.837Z,97868.87
2019-06-20T00:13:18.741Z,97865.67
2019-06-20T00:15:22.725Z,97861.09
2019-06-20T00:17:26.468Z,97864.93
2019-06-20T00:19:30.380Z,97863.13
2019-06-20T00:21:34.266Z,97865.61
2019-06-20T00:23:38.181Z,97867.27
2019-06-20T00:25:42.092Z,97873.48
2019-06-20T00:27:46.458Z,97871.98
2019-06-20T00:29:50.334Z,97870.02
2019-06-20T00:31:54.238Z,97876.30
2019-06-20T00:33:58.102Z,97873.41
2019-06-20T00:36:02.030Z,97881.43
2019-06-20T00:38:09.137Z,97899.55
2019-06-20T00:40:13.653Z,97941.55
2019-06-20T00:42:17.402Z,97957.13
2019-06-20T00:44:21.312Z,97970.75
2019-06-20T00:46:25.239Z,97967.69
2019-06-20T00:48:29.139Z,97976.19
2019-06-20T00:50:33.108Z,97981.39
2019-06-20T00:52:36.948Z,97989.42
2019-06-20T00:54:40.925Z,97987.70
2019-06-20T00:56:44.760Z,97992.34
2019-06-20T00:58:48.565Z,97989.70
2019-06-20T01:00:52.384Z,97998.39
2019-06-20T01:02:56.152Z,97995.15
2019-06-20T01:04:59.976Z,98008.13
2019-06-20T01:07:03.882Z,98005.92
2019-06-20T01:09:08.602Z,98012.43
2019-06-20T01:11:12.568Z,98010.46
2019-06-20T01:13:32.258Z,97997.00
2019-06-20T01:15:22.282Z,97998.63
2019-06-20T01:17:26.035Z,98010.94
2019-06-20T01:19:30.035Z,98013.14
2019-06-20T01:21:33.880Z,98018.61
2019-06-20T01:23:37.835Z,98041.43
2019-06-20T01:25:43.194Z,98039.60
2019-06-20T01:27:46.994Z,98051.50
2019-06-20T01:29:50.897Z,98047.20
2019-06-20T01:31:54.885Z,98047.55
2019-06-20T01:33:58.707Z,98043.14
2019-06-20T01:36:05.116Z,98060.08
2019-06-20T01:38:08.987Z,98055.08
2019-06-20T01:40:13.046Z,98045.46
2019-06-20T01:42:16.877Z,98047.53
2019-06-20T01:44:20.685Z,98049.16
2019-06-20T01:46:24.652Z,98060.84
2019-06-20T01:48:28.570Z,98056.11
2019-06-20T01:50:32.423Z,98066.06
2019-06-20T01:52:36.328Z,98077.98
2019-06-20T01:54:40.351Z,98094.50
2019-06-20T01:56:44.121Z,98095.39
2019-06-20T01:58:48.092Z,98112.84
2019-06-20T02:00:52.188Z,98124.09
2019-06-20T02:02:56.048Z,98138.73
2019-06-20T02:04:59.963Z,98150.57
2019-06-20T02:07:04.062Z,98158.67
2019-06-20T02:09:08.941Z,98169.97
2019-06-20T02:11:12.698Z,98180.38
2019-06-20T02:13:16.579Z,98179.28
2019-06-20T02:15:20.686Z,98186.41
2019-06-20T02:17:24.605Z,98191.98
2019-06-20T02:19:28.491Z,98199.27
2019-06-20T02:21:32.485Z,98203.45
2019-06-20T02:23:36.336Z,98199.65
2019-06-20T02:25:40.232Z,98206.72
2019-06-20T02:27:44.189Z,98208.68
2019-06-20T02:29:48.088Z,98209.11
2019-06-20T02:31:52.016Z,98213.56
2019-06-20T02:33:55.830Z,98207.66
2019-06-20T02:35:59.732Z,98210.25
2019-06-20T02:38:03.782Z,98203.97
2019-06-20T02:40:07.715Z,98205.89
2019-06-20T02:42:11.454Z,98216.67
2019-06-20T02:44:29.895Z,98216.67
2019-06-20T02:46:23.641Z,98201.41
2019-06-20T02:48:27.473Z,98201.41
2019-06-20T02:50:31.525Z,98203.42
2019-06-20T02:52:35.434Z,98205.58
2019-06-20T02:54:39.247Z,98195.98
2019-06-20T02:56:43.093Z,98190.48
2019-06-20T02:58:47.033Z,98175.88
2019-06-20T03:00:57.183Z,98180.42
2019-06-20T03:03:00.956Z,98186.91
2019-06-20T03:05:05.307Z,98193.20
2019-06-20T03:07:09.183Z,98193.99
2019-06-20T03:09:13.062Z,98190.83
2019-06-20T03:11:16.971Z,98182.61
2019-06-20T03:13:20.938Z,98191.55
2019-06-20T03:15:25.798Z,98188.59
2019-06-20T03:17:29.792Z,98188.33
2019-06-20T03:19:33.609Z,98197.56
2019-06-20T03:21:37.565Z,98205.50
2019-06-20T03:23:41.485Z,98206.88
2019-06-20T03:25:45.393Z,98210.30
2019-06-20T03:27:49.247Z,98216.46
2019-06-20T03:29:53.141Z,98216.33
2019-06-20T03:31:57.113Z,98213.14
2019-06-20T03:34:00.961Z,98212.94
2019-06-20T03:36:04.996Z,98218.53
2019-06-20T03:38:08.836Z,98219.91
2019-06-20T03:40:13.015Z,98215.81
2019-06-20T03:42:16.776Z,98208.50
2019-06-20T03:44:20.688Z,98198.34
2019-06-20T03:46:24.580Z,98202.85
2019-06-20T03:48:28.546Z,98209.91
2019-06-20T03:50:32.631Z,98210.44
2019-06-20T03:52:38.229Z,98211.56
2019-06-20T03:54:42.045Z,98222.81
2019-06-20T03:56:45.946Z,98229.72
2019-06-20T03:58:49.833Z,98224.86
2019-06-20T04:00:53.779Z,98207.24
2019-06-20T04:02:57.707Z,98209.94
2019-06-20T04:05:01.425Z,98217.02
2019-06-20T04:07:05.355Z,98206.91
2019-06-20T04:09:09.226Z,98204.38
2019-06-20T04:11:13.149Z,98200.88
2019-06-20T04:13:17.097Z,98203.88
2019-06-20T04:15:20.959Z,98206.16
2019-06-20T04:17:24.784Z,98205.47
2019-06-20T04:19:28.676Z,98207.41
2019-06-20T04:21:32.582Z,98208.30
2019-06-20T04:23:36.507Z,98209.78
2019-06-20T04:25:40.384Z,98207.02
2019-06-20T04:27:44.318Z,98211.39
2019-06-20T04:29:48.191Z,98202.47
2019-06-20T04:31:52.131Z,98210.93
2019-06-20T04:33:56.004Z,98217.97
2019-06-20T04:35:59.937Z,98216.45
2019-06-20T04:38:03.873Z,98210.52
2019-06-20T04:40:08.161Z,98215.09
2019-06-20T04:42:12.058Z,98207.23
2019-06-20T04:44:15.964Z,98211.48
2019-06-20T04:46:31.611Z,98214.66
2019-06-20T04:48:35.727Z,98213.21
2019-06-20T04:50:39.544Z,98218.37
2019-06-20T04:52:43.442Z,98227.58
2019-06-20T04:54:47.354Z,98228.25
2019-06-20T04:56:51.244Z,98224.78
2019-06-20T04:58:55.254Z,98223.32
2019-06-20T05:01:02.553Z,98224.07
2019-06-20T05:03:06.247Z,98216.25
2019-06-20T05:05:10.433Z,98223.66
2019-06-20T05:07:18.930Z,98220.56
2019-06-20T05:09:22.669Z,98210.57
2019-06-20T05:11:27.533Z,98210.01
2019-06-20T05:13:31.473Z,98217.98
2019-06-20T05:15:51.113Z,98214.88
2019-06-20T05:17:41.166Z,98209.59
2019-06-20T05:19:45.051Z,98217.64
2019-06-20T05:21:48.956Z,98210.45
2019-06-20T05:23:52.856Z,98225.04
2019-06-20T05:25:56.787Z,98222.76
2019-06-20T05:28:00.682Z,98226.83
2019-06-20T05:30:05.621Z,98226.98
2019-06-20T05:32:09.521Z,98228.06
2019-06-20T05:34:13.425Z,98225.53
2019-06-20T05:36:17.405Z,98225.78
2019-06-20T05:38:21.233Z,98227.34
2019-06-20T05:40:25.278Z,98229.38
2019-06-20T05:42:29.024Z,98230.68
2019-06-20T05:44:33.037Z,98229.81
2019-06-20T05:46:36.824Z,98225.66
2019-06-20T05:48:40.738Z,98228.42
2019-06-20T05:50:44.714Z,98231.20
2019-06-20T05:52:48.590Z,98235.66
2019-06-20T05:54:52.577Z,98238.98
2019-06-20T05:56:56.387Z,98239.25
2019-06-20T05:59:00.123Z,98242.84
2019-06-20T06:01:04.056Z,98249.42
2019-06-20T06:03:07.939Z,98252.04
2019-06-20T06:05:13.406Z,98255.17
2019-06-20T06:07:17.128Z,98261.50
2019-06-20T06:09:24.733Z,98260.94
2019-06-20T06:11:28.592Z,98263.61
2019-06-20T06:13:32.513Z,98268.17
2019-06-20T06:15:36.424Z,98259.86
2019-06-20T06:17:40.319Z,98259.86
2019-06-20T06:19:44.642Z,98258.22
2019-06-20T06:21:48.524Z,98259.12
2019-06-20T06:23:52.483Z,98265.48
2019-06-20T06:25:57.527Z,98267.42
2019-06-20T06:28:01.281Z,98274.61
2019-06-20T06:30:07.089Z,98281.69
2019-06-20T06:32:11.078Z,98278.61
2019-06-20T06:34:14.927Z,98279.81
2019-06-20T06:36:18.817Z,98275.43
2019-06-20T06:38:22.651Z,98284.45
2019-06-20T06:40:27.686Z,98283.22
2019-06-20T06:42:31.480Z,98284.67
2019-06-20T06:44:35.387Z,98283.92
2019-06-20T06:46:45.862Z,98275.36
2019-06-20T06:48:44.969Z,98282.62
2019-06-20T06:50:48.836Z,98288.79
2019-06-20T06:52:52.624Z,98287.32
2019-06-20T06:54:56.574Z,98275.55
2019-06-20T06:57:00.452Z,98281.15
2019-06-20T06:59:04.498Z,98276.66
2019-06-20T07:01:10.289Z,98265.66
2019-06-20T07:03:14.036Z,98260.91
2019-06-20T07:05:18.158Z,98255.30
2019-06-20T07:07:22.020Z,98245.24
2019-06-20T07:09:25.930Z,98230.70
2019-06-20T07:11:29.990Z,98235.30
2019-06-20T07:13:33.744Z,98241.23
2019-06-20T07:15:37.779Z,98249.20
2019-06-20T07:17:43.041Z,98252.50
2019-06-20T07:19:46.918Z,98230.84
2019-06-20T07:21:50.801Z,98232.37
2019-06-20T07:23:54.695Z,98235.88
2019-06-20T07:25:58.669Z,98233.53
2019-06-20T07:28:06.109Z,98230.04
2019-06-20T07:30:11.076Z,98218.16
2019-06-20T07:32:15.028Z,98215.72
2019-06-20T07:34:18.992Z,98225.17
2019-06-20T07:36:22.825Z,98215.48
2019-06-20T07:38:26.718Z,98216.38
2019-06-20T07:40:30.722Z,98211.48
2019-06-20T07:42:34.525Z,98215.48
2019-06-20T07:44:38.460Z,98209.28
2019-06-20T07:46:42.419Z,98212.83
2019-06-20T07:48:46.261Z,98218.37
2019-06-20T07:50:50.162Z,98213.39
2019-06-20T07:53:02.046Z,98208.46
2019-06-20T07:54:59.619Z,98212.39
2019-06-20T07:57:03.523Z,98209.28
2019-06-20T07:59:07.496Z,98207.84
2019-06-20T08:01:11.474Z,98206.86
2019-06-20T08:03:15.200Z,98207.51
2019-06-20T08:05:20.465Z,98209.29
2019-06-20T08:07:24.270Z,98208.89
2019-06-20T08:09:43.838Z,98212.54
2019-06-20T08:11:33.783Z,98220.25
2019-06-20T08:13:37.598Z,98219.59
2019-06-20T08:17:41.297Z,98220.72
2019-06-20T08:19:45.246Z,98222.91
2019-06-20T08:21:49.136Z,98226.59
2019-06-20T08:23:53.044Z,98235.02
2019-06-20T08:25:58.822Z,98231.87
2019-06-20T08:28:04.277Z,98240.73
2019-06-20T08:30:08.584Z,98236.38
2019-06-20T08:32:12.595Z,98247.48
2019-06-20T08:34:16.661Z,98254.78
2019-06-20T08:36:20.469Z,98253.61
2019-06-20T08:38:24.347Z,98246.77
2019-06-20T08:40:29.214Z,98258.75
2019-06-20T08:42:32.933Z,98252.44
2019-06-20T08:44:36.847Z,98230.48
2019-06-20T08:46:40.734Z,98242.72
2019-06-20T08:48:44.607Z,98231.06
2019-06-20T08:50:48.417Z,98244.23
2019-06-20T08:52:52.348Z,98243.78
2019-06-20T08:54:56.656Z,98238.37
2019-06-20T08:57:01.574Z,98244.05
2019-06-20T08:59:05.995Z,98243.58
2019-06-20T09:01:09.827Z,98241.62
2019-06-20T09:03:13.659Z,98237.20
2019-06-20T09:05:17.821Z,98241.15
2019-06-20T09:07:21.579Z,98235.59
2019-06-20T09:09:25.570Z,98236.62
2019-06-20T09:11:29.267Z,98243.48
2019-06-20T09:13:33.118Z,98244.05
2019-06-20T09:15:37.245Z,98243.06
2019-06-20T09:17:41.023Z,98246.47
2019-06-20T09:19:44.823Z,98244.69
2019-06-20T09:21:48.721Z,98251.86
2019-06-20T09:23:54.121Z,98246.22
2019-06-20T09:25:57.974Z,98247.28
2019-06-20T09:28:02.650Z,98246.87
2019-06-20T09:30:07.007Z,98253.73
2019-06-20T09:32:10.860Z,98258.52
2019-06-20T09:34:14.823Z,98266.53
2019-06-20T09:36:18.722Z,98270.16
2019-06-20T09:38:23.751Z,98273.05
2019-06-20T09:40:27.776Z,98274.55
2019-06-20T09:42:32.732Z,98275.97
2019-06-20T09:44:36.465Z,98277.22
2019-06-20T09:46:40.260Z,98283.38
2019-06-20T09:48:44.043Z,98276.41
2019-06-20T09:50:49.340Z,98275.48
2019-06-20T09:52:54.799Z,98271.05
2019-06-20T09:54:59.054Z,98280.32
2019-06-20T09:57:02.781Z,98276.55
2019-06-20T09:59:06.585Z,98280.03
2019-06-20T10:01:10.477Z,98281.50
2019-06-20T10:03:14.411Z,98282.42
2019-06-20T10:05:19.522Z,98273.64
2019-06-20T10:07:23.320Z,98283.69
2019-06-20T10:09:27.111Z,98282.64
2019-06-20T10:11:31.099Z,98287.02
2019-06-20T10:13:35.132Z,98289.05
2019-06-20T10:15:39.669Z,98286.34
2019-06-20T10:17:43.432Z,98291.29
2019-06-20T10:19:48.320Z,98292.63
2019-06-20T10:21:52.095Z,98290.62
2019-06-20T10:23:56.087Z,98285.91
2019-06-20T10:25:59.822Z,98281.48
2019-06-20T10:28:03.854Z,98283.29
2019-06-20T10:30:14.268Z,98283.22
2019-06-20T10:32:13.655Z,98279.30
2019-06-20T10:34:17.445Z,98285.46
2019-06-20T10:36:21.178Z,98278.95
2019-06-20T10:38:25.104Z,98285.20
2019-06-20T10:40:29.188Z,98286.16
2019-06-20T10:42:32.892Z,98291.47
2019-06-20T10:44:36.592Z,98291.55
2019-06-20T10:46:40.463Z,98291.38
2019-06-20T10:48:44.449Z,98288.50
2019-06-20T10:50:49.801Z,98284.00
2019-06-20T10:52:53.903Z,98280.63
2019-06-20T10:54:57.652Z,98284.28
2019-06-20T10:57:01.402Z,98285.51
2019-06-20T10:59:05.551Z,98296.24
2019-06-20T11:01:09.430Z,98290.79
2019-06-20T11:03:13.141Z,98286.50
2019-06-20T11:05:18.908Z,98290.01
2019-06-20T11:07:22.814Z,98290.95
2019-06-20T11:11:29.257Z,98288.53
2019-06-20T11:13:33.063Z,98281.01
2019-06-20T11:15:37.524Z,98282.81
2019-06-20T11:17:44.050Z,98278.09
2019-06-20T11:19:48.139Z,98282.95
2019-06-20T11:21:51.856Z,98276.16
2019-06-20T11:23:55.650Z,98273.06
2019-06-20T11:25:59.561Z,98266.51
2019-06-20T11:28:03.498Z,98276.25
2019-06-20T11:30:09.715Z,98267.70
2019-06-20T11:32:13.516Z,98271.61
2019-06-20T11:34:17.417Z,98271.06
2019-06-20T11:36:21.403Z,98265.46
2019-06-20T11:38:25.222Z,98254.53
2019-06-20T11:40:29.093Z,98266.54
2019-06-20T11:42:32.975Z,98260.50
2019-06-20T11:44:37.032Z,98258.23
2019-06-20T11:46:40.860Z,98264.95
2019-06-20T11:48:44.562Z,98261.10
2019-06-20T11:50:48.619Z,98257.28
2019-06-20T11:52:52.570Z,98260.23
2019-06-20T11:54:56.286Z,98256.68
2019-06-20T11:56:59.986Z,98254.38
2019-06-20T11:59:03.769Z,98249.48
2019-06-20T12:01:07.661Z,98265.16
2019-06-20T12:03:11.485Z,98255.93
2019-06-20T12:05:16.044Z,98249.77
2019-06-20T12:07:19.946Z,98256.15
2019-06-20T12:09:23.822Z,98254.59
2019-06-20T12:11:27.540Z,98249.80
2019-06-20T12:13:31.410Z,98249.17
2019-06-20T12:15:35.460Z,98242.88
2019-06-20T12:17:40.989Z,98246.75
2019-06-20T12:19:44.763Z,98248.23
2019-06-20T12:21:49.130Z,98235.95
2019-06-20T12:23:52.992Z,98238.49
2019-06-20T12:25:56.977Z,98232.51
2019-06-20T12:28:00.772Z,98225.98
2019-06-20T12:30:05.526Z,98220.43
2019-06-20T12:32:10.088Z,98226.33
2019-06-20T12:34:13.911Z,98219.73
2019-06-20T12:36:17.628Z,98218.72
2019-06-20T12:38:21.568Z,98219.29
2019-06-20T12:40:25.587Z,98215.70
2019-06-20T12:42:29.351Z,98212.20
2019-06-20T12:44:33.243Z,98213.06
2019-06-20T12:46:39.372Z,98208.43
2019-06-20T12:48:42.831Z,98211.20
2019-06-20T12:50:47.614Z,98211.80
2019-06-20T12:52:51.356Z,98205.77
2019-06-20T12:54:55.066Z,98197.95
2019-06-20T12:56:58.993Z,98197.58
2019-06-20T12:59:02.959Z,98199.98
2019-06-20T13:01:06.859Z,98194.87
2019-06-20T13:03:10.642Z,98191.67
2019-06-20T13:05:16.447Z,98193.67
2019-06-20T13:07:20.382Z,98192.89
2019-06-20T13:09:24.089Z,98188.88
2019-06-20T13:11:28.135Z,98178.81
2019-06-20T13:13:31.841Z,98178.37
2019-06-20T13:15:35.553Z,98174.92
2019-06-20T13:17:41.127Z,98170.38
2019-06-20T13:19:44.853Z,98170.30
2019-06-20T13:21:48.679Z,98177.00
2019-06-20T13:23:52.383Z,98176.33
2019-06-20T13:25:56.099Z,98184.20
2019-06-20T13:28:00.945Z,98189.49
2019-06-20T13:30:05.814Z,98193.24
2019-06-20T13:32:09.544Z,98190.50
2019-06-20T13:34:13.309Z,98192.00
2019-06-20T13:36:17.011Z,98196.11
2019-06-20T13:38:20.911Z,98198.09
2019-06-20T13:40:24.798Z,98194.52
2019-06-20T13:42:28.608Z,98191.25
2019-06-20T13:44:32.425Z,98187.13
2019-06-20T13:46:36.200Z,98191.06
2019-06-20T13:48:40.805Z,98192.59
2019-06-20T13:50:45.551Z,98190.76
2019-06-20T13:52:51.186Z,98193.48
2019-06-20T13:54:54.802Z,98187.61
2019-06-20T13:56:58.711Z,98189.52
2019-06-20T13:59:02.463Z,98190.30
2019-06-20T14:01:06.325Z,98189.05
2019-06-20T14:03:10.162Z,98186.56
2019-06-20T14:05:14.724Z,98191.85
2019-06-20T14:07:18.481Z,98191.38
2019-06-20T14:09:22.327Z,98192.42
2019-06-20T14:11:26.030Z,98191.47
2019-06-20T14:13:29.962Z,98191.20
2019-06-20T14:15:33.944Z,98190.42
2019-06-20T14:17:38.196Z,98205.53
2019-06-20T14:19:42.189Z,98207.46
2019-06-20T14:24:43.839Z,98218.78
2019-06-20T14:26:48.873Z,98221.59
2019-06-20T14:28:52.603Z,98223.28
2019-06-20T14:30:57.667Z,98219.95
2019-06-20T14:33:01.663Z,98210.83
2019-06-20T14:35:05.664Z,98202.73
2019-06-20T14:37:09.483Z,98214.20
2019-06-20T14:39:13.335Z,98207.12
2019-06-20T14:41:17.292Z,98205.63
2019-06-20T14:43:21.022Z,98203.91
2019-06-20T14:45:24.852Z,98212.30
2019-06-20T14:47:28.830Z,98210.84
2019-06-20T14:49:32.661Z,98216.77
2019-06-20T14:51:36.556Z,98217.73
2019-06-20T14:53:40.458Z,98215.66
2019-06-20T14:55:44.779Z,98225.01
2019-06-20T14:57:50.494Z,98219.11
2019-06-20T14:59:54.460Z,98223.21
2019-06-20T15:01:58.130Z,98219.30
2019-06-20T15:04:02.168Z,98216.87
2019-06-20T15:06:06.000Z,98220.25
2019-06-20T15:08:09.814Z,98213.20
2019-06-20T15:10:13.828Z,98225.78
2019-06-20T15:12:17.694Z,98223.47
2019-06-20T15:14:21.379Z,98226.98
2019-06-20T15:16:25.168Z,98229.57
2019-06-20T15:18:28.926Z,98225.72
2019-06-20T15:20:32.637Z,98223.06
2019-06-20T15:22:36.568Z,98215.73
2019-06-20T15:24:40.564Z,98222.14
2019-06-20T15:26:47.122Z,98223.40
2019-06-20T15:28:51.822Z,98215.59
2019-06-20T15:30:57.176Z,98213.75
2019-06-20T15:33:09.712Z,98217.03
2019-06-20T15:35:07.215Z,98216.14
2019-06-20T15:37:11.033Z,98215.77
2019-06-20T15:39:14.948Z,98208.20
2019-06-20T15:41:18.991Z,98213.42
2019-06-20T15:43:22.700Z,98210.05
2019-06-20T15:45:26.461Z,98208.30
2019-06-20T15:47:30.317Z,98205.51
2019-06-20T15:49:34.072Z,98207.11
2019-06-20T15:51:38.084Z,98211.61
2019-06-20T15:53:41.788Z,98204.48
2019-06-20T15:55:45.606Z,98211.94
2019-06-20T15:57:49.464Z,98212.73
2019-06-20T15:59:53.193Z,98215.90
2019-06-20T16:01:56.934Z,98224.19
2019-06-20T16:04:00.853Z,98224.80
2019-06-20T16:06:04.877Z,98228.75
2019-06-20T16:08:08.902Z,98233.32
2019-06-20T16:10:13.995Z,98227.87
2019-06-20T16:12:17.775Z,98232.06
2019-06-20T16:14:21.564Z,98234.99
2019-06-20T16:16:25.433Z,98233.73
2019-06-20T16:18:29.149Z,98234.89
2019-06-20T16:20:33.048Z,98238.13
2019-06-20T16:22:36.830Z,98250.36
2019-06-20T16:24:40.545Z,98247.43
2019-06-20T16:26:44.332Z,98247.30
2019-06-20T16:28:48.074Z,98240.07
2019-06-20T16:31:07.664Z,98242.63
2019-06-20T16:32:57.284Z,98243.81
2019-06-20T16:35:01.186Z,98234.99
2019-06-20T16:37:10.093Z,98236.15
2019-06-20T16:39:10.655Z,98242.32
2019-06-20T16:41:14.438Z,98239.90
2019-06-20T16:43:18.151Z,98232.67
2019-06-20T16:45:22.121Z,98245.25
2019-06-20T16:47:26.036Z,98241.13
2019-06-20T16:49:29.991Z,98244.16
2019-06-20T16:51:33.840Z,98246.53
2019-06-20T16:53:37.640Z,98243.33
2019-06-20T16:55:41.493Z,98245.23
2019-06-20T16:57:45.352Z,98247.23
2019-06-20T16:59:49.311Z,98246.67
2019-06-20T17:01:53.211Z,98250.31
2019-06-20T17:03:57.133Z,98248.26
2019-06-20T17:06:00.975Z,98255.70
2019-06-20T17:08:05.105Z,98268.19
2019-06-20T17:10:09.667Z,98260.15
2019-06-20T17:12:13.635Z,98260.20
2019-06-20T17:14:17.284Z,98256.72
2019-06-20T17:16:21.181Z,98264.27
2019-06-20T17:18:24.899Z,98263.00
2019-06-20T17:20:28.856Z,98266.27
2019-06-20T17:22:32.637Z,98268.36
2019-06-20T17:24:36.431Z,98270.45
2019-06-20T17:26:40.341Z,98262.79
2019-06-20T17:28:44.169Z,98271.16
2019-06-20T17:30:47.939Z,98272.11
2019-06-20T17:32:51.827Z,98274.91
2019-06-20T17:34:55.545Z,98272.84
2019-06-20T17:36:59.263Z,98275.40
2019-06-20T17:39:02.989Z,98271.79
2019-06-20T17:41:06.761Z,98267.28
2019-06-20T17:43:10.457Z,98268.34
2019-06-20T17:45:15.424Z,98272.66
2019-06-20T17:47:19.266Z,98277.86
2019-06-20T17:49:23.171Z,98282.62
2019-06-20T17:51:26.890Z,98276.02
2019-06-20T17:53:30.606Z,98284.02
2019-06-20T17:55:34.545Z,98283.23
2019-06-20T17:57:38.347Z,98285.78
2019-06-20T17:59:42.073Z,98291.94
2019-06-20T18:01:45.802Z,98292.06
2019-06-20T18:03:49.589Z,98294.39
2019-06-20T18:05:53.307Z,98290.91
2019-06-20T18:07:57.089Z,98296.84
2019-06-20T18:10:00.799Z,98311.95
2019-06-20T18:12:04.881Z,98302.79
2019-06-20T18:14:08.764Z,98307.79
2019-06-20T18:16:24.493Z,98306.17
2019-06-20T18:18:18.018Z,98308.47
2019-06-20T18:20:22.176Z,98310.91
2019-06-20T18:22:26.064Z,98307.65
2019-06-20T18:24:29.955Z,98315.20
2019-06-20T18:26:33.748Z,98322.84
2019-06-20T18:28:37.452Z,98320.41
2019-06-20T18:30:43.009Z,98321.91
2019-06-20T18:32:46.826Z,98320.88
2019-06-20T18:35:01.445Z,98320.17
2019-06-20T18:36:56.135Z,98323.75
2019-06-20T18:38:59.839Z,98319.11
2019-06-20T18:41:03.747Z,98327.20
2019-06-20T18:43:07.542Z,98329.84
2019-06-20T18:45:11.733Z,98330.39
2019-06-20T18:47:15.519Z,98326.92
2019-06-20T18:49:19.259Z,98327.93
2019-06-20T18:51:23.200Z,98329.08
2019-06-20T18:53:27.068Z,98331.75
2019-06-20T18:55:30.783Z,98323.72
2019-06-20T18:57:34.571Z,98328.58
2019-06-20T18:59:38.381Z,98332.86
2019-06-20T19:01:42.097Z,98335.75
2019-06-20T19:03:45.863Z,98340.95
2019-06-20T19:05:49.531Z,98331.77
2019-06-20T19:07:53.274Z,98344.24
2019-06-20T19:09:57.429Z,98337.31
2019-06-20T19:12:01.199Z,98339.37
2019-06-20T19:14:05.078Z,98341.55
2019-06-20T19:16:08.854Z,98343.95
2019-06-20T19:18:13.144Z,98346.22
2019-06-20T19:20:17.456Z,98348.63
2019-06-20T19:22:21.353Z,98353.47
2019-06-20T19:24:25.106Z,98351.95
2019-06-20T19:26:28.747Z,98351.95
2019-06-20T19:28:32.726Z,98349.84
2019-06-20T19:30:50.249Z,98354.42
2019-06-20T19:32:54.165Z,98362.08
2019-06-20T19:35:02.216Z,98353.11
2019-06-20T19:37:03.506Z,98358.20
2019-06-20T19:39:07.903Z,98361.64
2019-06-20T19:41:11.615Z,98364.52
2019-06-20T19:43:15.323Z,98374.75
2019-06-20T19:45:19.382Z,98369.53
2019-06-20T19:47:23.290Z,98381.31
2019-06-20T19:49:27.057Z,98378.53
2019-06-20T19:51:30.885Z,98379.61
2019-06-20T19:53:34.711Z,98388.33
2019-06-20T19:55:38.894Z,98394.11
2019-06-20T19:57:42.657Z,98397.96
2019-06-20T19:59:46.643Z,98399.00
2019-06-20T20:01:50.614Z,98399.35
2019-06-20T20:03:54.567Z,98397.48
2019-06-20T20:05:58.658Z,98399.06
2019-06-20T20:08:02.756Z,98389.33
2019-06-20T20:10:07.315Z,98394.59
2019-06-20T20:12:11.105Z,98401.29
2019-06-20T20:14:14.843Z,98397.59
2019-06-20T20:16:18.535Z,98402.93
2019-06-20T20:18:22.337Z,98401.72
2019-06-20T20:20:26.040Z,98403.47
2019-06-20T20:22:29.759Z,98399.58
2019-06-20T20:24:33.471Z,98401.28
2019-06-20T20:26:37.257Z,98399.89
2019-06-20T20:28:40.994Z,98400.41
2019-06-20T20:30:45.065Z,98403.70
2019-06-20T20:32:48.834Z,98406.06
2019-06-20T20:34:52.724Z,98407.14
2019-06-20T20:36:56.439Z,98411.25
2019-06-20T20:39:00.184Z,98413.28
2019-06-20T20:41:04.025Z,98414.50
2019-06-20T20:43:08.002Z,98410.69
2019-06-20T20:45:12.384Z,98414.08
2019-06-20T20:47:16.236Z,98416.45
2019-06-20T20:49:20.085Z,98410.98
2019-06-20T20:51:23.850Z,98410.16
2019-06-20T20:53:27.756Z,98414.63
2019-06-20T20:55:31.483Z,98415.54
2019-06-20T20:57:35.357Z,98421.01
2019-06-20T20:59:39.250Z,98424.78
2019-06-20T21:01:43.067Z,98423.53
2019-06-20T21:03:47.067Z,98430.67
2019-06-20T21:05:51.973Z,98430.25
2019-06-20T21:07:55.760Z,98434.84
2019-06-20T21:09:59.488Z,98431.73
2019-06-20T21:12:03.284Z,98429.38
2019-06-20T21:14:07.180Z,98431.50
2019-06-20T21:16:11.109Z,98432.20
2019-06-20T21:18:14.948Z,98434.80
2019-06-20T21:20:19.319Z,98433.17
2019-06-20T21:22:23.142Z,98443.14
2019-06-20T21:24:26.852Z,98441.98
2019-06-20T21:26:30.764Z,98435.87
2019-06-20T21:28:34.726Z,98440.11
2019-06-20T21:30:38.655Z,98444.09
2019-06-20T21:32:42.533Z,98445.42
2019-06-20T21:34:46.396Z,98449.48
2019-06-20T21:36:50.262Z,98450.80
2019-06-20T21:38:54.241Z,98461.53
2019-06-20T21:40:58.165Z,98463.59
2019-06-20T21:43:04.092Z,98466.93
2019-06-20T21:45:08.621Z,98468.31
2019-06-20T21:47:12.455Z,98466.11
2019-06-20T21:49:16.368Z,98465.28
2019-06-20T21:51:20.260Z,98469.52
2019-06-20T21:53:24.299Z,98469.94
2019-06-20T21:55:28.157Z,98477.58
2019-06-20T21:57:31.964Z,98473.75
2019-06-20T21:59:37.734Z,98473.98
2019-06-20T22:01:41.779Z,98472.94
2019-06-20T22:03:45.621Z,98477.84
2019-06-20T22:05:49.525Z,98482.98
2019-06-20T22:07:53.348Z,98486.88
2019-06-20T22:09:57.249Z,98484.36
2019-06-20T22:12:01.171Z,98482.98
2019-06-20T22:14:05.401Z,98483.87
2019-06-20T22:16:09.194Z,98489.16
2019-06-20T22:18:13.218Z,98484.02
2019-06-20T22:20:17.531Z,98490.77
2019-06-20T22:22:21.360Z,98493.61
2019-06-20T22:24:25.191Z,98495.34
2019-06-20T22:26:29.121Z,98495.34
2019-06-20T22:28:33.071Z,98501.03
2019-06-20T22:30:43.249Z,98503.50
2019-06-20T22:32:47.148Z,98514.90
2019-06-20T22:34:51.083Z,98538.73
2019-06-20T22:36:55.131Z,98538.73
2019-06-20T22:38:58.891Z,98537.34
2019-06-20T22:41:02.795Z,98526.52
2019-06-20T22:43:06.776Z,98522.42
2019-06-20T22:45:11.946Z,98524.11
2019-06-20T22:47:15.714Z,98526.06
2019-06-20T22:49:19.776Z,98523.43
2019-06-20T22:51:23.612Z,98517.72
2019-06-20T22:53:27.492Z,98516.81
2019-06-20T22:55:31.485Z,98516.81
2019-06-20T22:57:35.225Z,98515.63
2019-06-20T22:59:39.120Z,98515.29
2019-06-20T23:01:45.655Z,98515.29
2019-06-20T23:03:50.441Z,98507.94
2019-06-20T23:05:54.407Z,98508.99
2019-06-20T23:07:58.301Z,98509.88
2019-06-20T23:10:10.305Z,98503.85
2019-06-20T23:12:08.133Z,98508.63
2019-06-20T23:14:11.987Z,98504.84
2019-06-20T23:16:15.987Z,98514.44
2019-06-20T23:18:19.898Z,98514.44
2019-06-20T23:20:23.882Z,98512.03
2019-06-20T23:22:27.686Z,98515.19
2019-06-20T23:24:31.516Z,98521.55
2019-06-20T23:26:35.242Z,98515.88
2019-06-20T23:28:39.199Z,98517.95
2019-06-20T23:30:43.033Z,98520.08
2019-06-20T23:32:47.008Z,98509.99
2019-06-20T23:34:50.837Z,98506.97
2019-06-20T23:36:54.819Z,98506.97
2019-06-20T23:38:58.662Z,98507.30
2019-06-20T23:41:02.665Z,98506.09
2019-06-20T23:43:06.546Z,98509.00
2019-06-20T23:45:10.815Z,98508.17
2019-06-20T23:47:14.691Z,98509.49
2019-06-20T23:49:18.650Z,98504.58
2019-06-20T23:51:25.591Z,98508.36
2019-06-20T23:53:29.281Z,98507.98
2019-06-20T23:55:33.263Z,98512.25
2019-06-20T23:57:37.089Z,98515.84
2019-06-20T23:59:41.040Z,98515.72
